Time,TemperatureF,DewpointF,PressureIn,WindDirection,WindDirectionDegrees,WindSpeedMPH,WindSpeedGustMPH,Humidity,HourlyPrecipIn,Conditions,Clouds,dailyrainin,SoftwareType,DateUTC
2013-03-27 00:02:00,60.0,15.0,30.02,South,179,18.0,21.0,17,0.00,,,0.00,,2013-03-27 06:02:00,
2013-03-27 00:12:00,60.0,15.0,30.02,South,179,18.0,21.0,17,0.00,,,0.00,,2013-03-27 06:12:00,
2013-03-27 00:22:00,59.0,14.0,30.02,SSW,192,15.0,21.0,17,0.00,,,0.00,,2013-03-27 06:22:00,
2013-03-27 00:32:00,58.0,15.0,30.02,SSW,209,12.0,17.0,18,0.00,,,0.00,,2013-03-27 06:32:00,
2013-03-27 00:42:00,58.0,15.0,30.02,SSW,209,12.0,17.0,18,0.00,,,0.00,,2013-03-27 06:42:00,
2013-03-27 00:53:00,57.0,15.0,30.01,SSW,203,15.0,17.0,19,0.00,,,0.00,,2013-03-27 06:53:00,
2013-03-27 01:02:00,58.0,16.0,30.01,SSW,207,13.0,17.0,19,0.00,,,0.00,,2013-03-27 07:02:00,
2013-03-27 01:12:00,58.0,16.0,30.01,SSW,207,13.0,17.0,19,0.00,,,0.00,,2013-03-27 07:12:00,
2013-03-27 01:22:00,57.0,15.0,30.01,SSW,202,12.0,15.0,19,0.00,,,0.00,,2013-03-27 07:22:00,
2013-03-27 01:32:00,57.0,15.0,30.01,SSW,204,13.0,16.0,19,0.00,,,0.00,,2013-03-27 07:32:00,
2013-03-27 01:42:00,57.0,15.0,30.01,SSW,204,13.0,16.0,19,0.00,,,0.00,,2013-03-27 07:42:00,
2013-03-27 01:53:00,57.0,15.0,30.01,SSW,199,14.0,16.0,19,0.00,,,0.00,,2013-03-27 07:53:00,
2013-03-27 02:02:00,57.0,15.0,30.00,SSW,194,16.0,18.0,19,0.00,,,0.00,,2013-03-27 08:02:00,
2013-03-27 02:12:00,57.0,15.0,30.00,SSW,194,16.0,18.0,19,0.00,,,0.00,,2013-03-27 08:12:00,
2013-03-27 02:22:00,57.0,15.0,30.00,SSW,202,16.0,18.0,19,0.00,,,0.00,,2013-03-27 08:22:00,
2013-03-27 02:32:00,57.0,16.0,30.00,SSW,205,13.0,17.0,20,0.00,,,0.00,,2013-03-27 08:32:00,
2013-03-27 02:43:00,57.0,16.0,30.00,SSW,205,13.0,17.0,20,0.00,,,0.00,,2013-03-27 08:43:00,
2013-03-27 02:52:00,57.0,16.0,29.98,SSW,212,14.0,17.0,20,0.00,,,0.00,,2013-03-27 08:52:00,
2013-03-27 03:01:00,56.0,16.0,29.98,SW,218,14.0,17.0,20,0.00,,,0.00,,2013-03-27 09:01:00,
2013-03-27 03:12:00,56.0,16.0,29.98,SW,218,14.0,17.0,20,0.00,,,0.00,,2013-03-27 09:12:00,
2013-03-27 03:22:00,56.0,16.0,29.98,SW,229,14.0,16.0,20,0.00,,,0.00,,2013-03-27 09:22:00,
2013-03-27 03:32:00,56.0,17.0,29.97,SSW,213,15.0,19.0,21,0.00,,,0.00,,2013-03-27 09:32:00,
2013-03-27 03:42:00,56.0,17.0,29.97,SSW,213,15.0,19.0,21,0.00,,,0.00,,2013-03-27 09:42:00,
2013-03-27 03:52:00,56.0,17.0,29.96,SW,216,14.0,17.0,21,0.00,,,0.00,,2013-03-27 09:52:00,
2013-03-27 04:02:00,56.0,17.0,29.96,SSW,213,15.0,18.0,21,0.00,,,0.00,,2013-03-27 10:02:00,
2013-03-27 04:12:00,56.0,17.0,29.96,SSW,213,15.0,18.0,21,0.00,,,0.00,,2013-03-27 10:12:00,
2013-03-27 04:23:00,56.0,17.0,29.95,SSW,212,14.0,17.0,21,0.00,,,0.00,,2013-03-27 10:23:00,
2013-03-27 04:32:00,56.0,17.0,29.95,SSW,202,13.0,17.0,21,0.00,,,0.00,,2013-03-27 10:32:00,
2013-03-27 04:42:00,56.0,17.0,29.95,SSW,202,13.0,17.0,21,0.00,,,0.00,,2013-03-27 10:42:00,
2013-03-27 04:53:00,56.0,17.0,29.95,SW,219,14.0,18.0,21,0.00,,,0.00,,2013-03-27 10:53:00,
2013-03-27 05:02:00,55.0,17.0,29.95,SW,224,16.0,19.0,22,0.00,,,0.00,,2013-03-27 11:02:00,
2013-03-27 05:12:00,55.0,17.0,29.95,SW,224,16.0,19.0,22,0.00,,,0.00,,2013-03-27 11:12:00,
2013-03-27 05:22:00,55.0,17.0,29.95,SW,215,16.0,20.0,22,0.00,,,0.00,,2013-03-27 11:22:00,
2013-03-27 05:32:00,54.0,17.0,29.96,SW,226,13.0,17.0,23,0.00,,,0.00,,2013-03-27 11:32:00,
2013-03-27 05:42:00,54.0,17.0,29.96,SW,226,13.0,17.0,23,0.00,,,0.00,,2013-03-27 11:42:00,
2013-03-27 05:52:00,54.0,16.0,29.96,SW,232,12.0,16.0,22,0.00,,,0.00,,2013-03-27 11:52:00,
2013-03-27 06:02:00,54.0,17.0,29.97,SW,218,13.0,15.0,23,0.00,,,0.00,,2013-03-27 12:02:00,
2013-03-27 06:12:00,54.0,17.0,29.97,SW,218,13.0,15.0,23,0.00,,,0.00,,2013-03-27 12:12:00,
2013-03-27 06:23:00,54.0,17.0,29.97,SW,219,13.0,16.0,23,0.00,,,0.00,,2013-03-27 12:23:00,
2013-03-27 06:32:00,53.0,16.0,29.97,SW,222,12.0,16.0,23,0.00,,,0.00,,2013-03-27 12:32:00,
2013-03-27 06:43:00,53.0,16.0,29.97,SW,222,12.0,16.0,23,0.00,,,0.00,,2013-03-27 12:43:00,
2013-03-27 06:52:00,53.0,16.0,29.98,SW,228,12.0,15.0,23,0.00,,,0.00,,2013-03-27 12:52:00,
2013-03-27 07:02:00,53.0,16.0,29.98,SW,225,11.0,15.0,23,0.00,,,0.00,,2013-03-27 13:02:00,
2013-03-27 07:12:00,53.0,16.0,29.98,SW,225,11.0,15.0,23,0.00,,,0.00,,2013-03-27 13:12:00,
2013-03-27 07:22:00,52.0,16.0,29.99,SW,221,12.0,15.0,24,0.00,,,0.00,,2013-03-27 13:22:00,
2013-03-27 07:32:00,52.0,16.0,29.98,SW,214,15.0,18.0,24,0.00,,,0.00,,2013-03-27 13:32:00,
2013-03-27 07:42:00,52.0,16.0,29.98,SW,214,15.0,18.0,24,0.00,,,0.00,,2013-03-27 13:42:00,
2013-03-27 07:53:00,53.0,17.0,29.98,SSW,192,15.0,17.0,24,0.00,,,0.00,,2013-03-27 13:53:00,
2013-03-27 08:02:00,53.0,17.0,29.99,SSW,203,13.0,17.0,24,0.00,,,0.00,,2013-03-27 14:02:00,
2013-03-27 08:12:00,53.0,17.0,29.99,SSW,203,13.0,17.0,24,0.00,,,0.00,,2013-03-27 14:12:00,
2013-03-27 08:22:00,53.0,17.0,30.00,SSW,212,11.0,17.0,24,0.00,,,0.00,,2013-03-27 14:22:00,
2013-03-27 08:32:00,53.0,17.0,30.01,SW,219,9.0,14.0,24,0.00,,,0.00,,2013-03-27 14:32:00,
2013-03-27 08:42:00,53.0,17.0,30.01,SW,219,9.0,14.0,24,0.00,,,0.00,,2013-03-27 14:42:00,
2013-03-27 08:52:00,53.0,17.0,30.01,SSW,203,10.0,14.0,24,0.00,,,0.00,,2013-03-27 14:52:00,
2013-03-27 09:02:00,53.0,17.0,30.02,SW,217,9.0,12.0,24,0.00,,,0.00,,2013-03-27 15:02:00,
2013-03-27 09:12:00,53.0,17.0,30.02,SW,217,9.0,12.0,24,0.00,,,0.00,,2013-03-27 15:12:00,
2013-03-27 09:22:00,54.0,18.0,30.02,SW,219,9.0,12.0,24,0.00,,,0.00,,2013-03-27 15:22:00,
2013-03-27 09:33:00,54.0,17.0,30.03,SW,221,10.0,13.0,23,0.00,,,0.00,,2013-03-27 15:33:00,
2013-03-27 09:42:00,54.0,17.0,30.03,SW,221,10.0,13.0,23,0.00,,,0.00,,2013-03-27 15:42:00,
2013-03-27 09:52:00,54.0,18.0,30.03,WSW,239,7.0,11.0,24,0.00,,,0.00,,2013-03-27 15:52:00,
2013-03-27 10:02:00,54.0,17.0,30.03,SW,218,7.0,11.0,23,0.00,,,0.00,,2013-03-27 16:02:00,
2013-03-27 10:13:00,54.0,17.0,30.03,SW,218,7.0,11.0,23,0.00,,,0.00,,2013-03-27 16:13:00,
2013-03-27 10:22:00,55.0,18.0,30.03,SW,236,5.0,9.0,23,0.00,,,0.00,,2013-03-27 16:22:00,
2013-03-27 10:32:00,55.0,18.0,30.03,SW,235,6.0,10.0,23,0.00,,,0.00,,2013-03-27 16:32:00,
2013-03-27 10:42:00,55.0,18.0,30.03,SW,235,6.0,10.0,23,0.00,,,0.00,,2013-03-27 16:42:00,
2013-03-27 10:52:00,56.0,19.0,30.03,SW,229,7.0,10.0,23,0.00,,,0.00,,2013-03-27 16:52:00,
2013-03-27 11:02:00,56.0,18.0,30.03,SW,224,9.0,13.0,22,0.00,,,0.00,,2013-03-27 17:02:00,
2013-03-27 11:12:00,56.0,18.0,30.03,SW,224,9.0,13.0,22,0.00,,,0.00,,2013-03-27 17:12:00,
2013-03-27 11:22:00,57.0,19.0,30.03,WSW,240,11.0,13.0,22,0.00,,,0.00,,2013-03-27 17:22:00,
2013-03-27 11:32:00,57.0,17.0,30.03,WSW,245,10.0,16.0,21,0.00,,,0.00,,2013-03-27 17:32:00,
2013-03-27 11:44:00,57.0,17.0,30.03,WSW,245,10.0,16.0,21,0.00,,,0.00,,2013-03-27 17:44:00,
2013-03-27 11:52:00,57.0,19.0,30.03,WSW,258,11.0,15.0,22,0.00,,,0.00,,2013-03-27 17:52:00,
2013-03-27 12:02:00,58.0,17.0,30.03,WSW,256,11.0,16.0,20,0.00,,,0.00,,2013-03-27 18:02:00,
2013-03-27 12:12:00,58.0,17.0,30.03,WSW,256,11.0,16.0,20,0.00,,,0.00,,2013-03-27 18:12:00,
2013-03-27 12:22:00,60.0,18.0,30.03,SW,234,12.0,15.0,19,0.00,,,0.00,,2013-03-27 18:22:00,
2013-03-27 12:32:00,60.0,18.0,30.02,WSW,242,9.0,13.0,19,0.00,,,0.00,,2013-03-27 18:32:00,
2013-03-27 12:42:00,60.0,18.0,30.02,WSW,242,9.0,13.0,19,0.00,,,0.00,,2013-03-27 18:42:00,
2013-03-27 12:53:00,60.0,18.0,30.02,SW,227,9.0,16.0,19,0.00,,,0.00,,2013-03-27 18:53:00,
2013-03-27 13:02:00,61.0,17.0,30.02,WSW,238,8.0,13.0,18,0.00,,,0.00,,2013-03-27 19:02:00,
2013-03-27 13:12:00,61.0,17.0,30.02,WSW,238,8.0,13.0,18,0.00,,,0.00,,2013-03-27 19:12:00,
2013-03-27 13:22:00,62.0,17.0,30.01,WSW,250,9.0,15.0,17,0.00,,,0.00,,2013-03-27 19:22:00,
2013-03-27 13:32:00,63.0,18.0,30.01,WSW,251,9.0,15.0,17,0.00,,,0.00,,2013-03-27 19:32:00,
2013-03-27 13:42:00,63.0,18.0,30.01,WSW,251,9.0,15.0,17,0.00,,,0.00,,2013-03-27 19:42:00,
2013-03-27 13:52:00,64.0,18.0,29.99,West,276,10.0,16.0,17,0.00,,,0.00,,2013-03-27 19:52:00,
2013-03-27 14:02:00,64.0,17.0,29.98,WSW,257,12.0,16.0,16,0.00,,,0.00,,2013-03-27 20:02:00,
2013-03-27 14:12:00,64.0,17.0,29.98,WSW,257,12.0,16.0,16,0.00,,,0.00,,2013-03-27 20:12:00,
2013-03-27 14:22:00,65.0,16.0,29.98,West,260,10.0,16.0,15,0.00,,,0.00,,2013-03-27 20:22:00,
2013-03-27 14:32:00,66.0,15.0,29.97,WSW,257,12.0,18.0,14,0.00,,,0.00,,2013-03-27 20:32:00,
2013-03-27 14:42:00,66.0,15.0,29.97,WSW,257,12.0,18.0,14,0.00,,,0.00,,2013-03-27 20:42:00,
2013-03-27 14:52:00,67.0,16.0,29.96,SW,235,14.0,20.0,14,0.00,,,0.00,,2013-03-27 20:52:00,
2013-03-27 15:02:00,67.0,16.0,29.96,West,271,9.0,19.0,14,0.00,,,0.00,,2013-03-27 21:02:00,
2013-03-27 15:12:00,67.0,16.0,29.96,West,271,9.0,19.0,14,0.00,,,0.00,,2013-03-27 21:12:00,
2013-03-27 15:22:00,70.0,17.0,29.95,West,272,8.0,14.0,13,0.00,,,0.00,,2013-03-27 21:22:00,
2013-03-27 15:32:00,69.0,18.0,29.94,West,278,15.0,22.0,14,0.00,,,0.00,,2013-03-27 21:32:00,
2013-03-27 15:43:00,69.0,18.0,29.94,West,278,15.0,22.0,14,0.00,,,0.00,,2013-03-27 21:43:00,
2013-03-27 15:52:00,70.0,17.0,29.93,WNW,293,15.0,23.0,13,0.00,,,0.00,,2013-03-27 21:52:00,
2013-03-27 16:03:00,69.0,18.0,29.93,West,261,18.0,24.0,14,0.00,,,0.00,,2013-03-27 22:03:00,
2013-03-27 16:12:00,69.0,18.0,29.93,West,261,18.0,24.0,14,0.00,,,0.00,,2013-03-27 22:12:00,
2013-03-27 16:23:00,69.0,18.0,29.92,West,281,20.0,23.0,14,0.00,,,0.00,,2013-03-27 22:23:00,
2013-03-27 16:33:00,71.0,18.0,29.92,WNW,287,11.0,23.0,13,0.00,,,0.00,,2013-03-27 22:33:00,
2013-03-27 16:42:00,71.0,18.0,29.92,WNW,287,11.0,23.0,13,0.00,,,0.00,,2013-03-27 22:42:00,
2013-03-27 16:53:00,70.0,17.0,29.91,NW,321,13.0,24.0,13,0.00,,,0.00,,2013-03-27 22:53:00,
2013-03-27 17:02:00,70.0,15.0,29.91,WNW,296,20.0,24.0,12,0.00,,,0.00,,2013-03-27 23:02:00,
2013-03-27 17:12:00,70.0,15.0,29.91,WNW,296,20.0,24.0,12,0.00,,,0.00,,2013-03-27 23:12:00,
2013-03-27 17:22:00,72.0,17.0,29.91,NW,309,14.0,21.0,12,0.00,,,0.00,,2013-03-27 23:22:00,
2013-03-27 17:32:00,70.0,15.0,29.91,WNW,288,15.0,27.0,12,0.00,,,0.00,,2013-03-27 23:32:00,
2013-03-27 17:42:00,70.0,15.0,29.91,WNW,288,15.0,27.0,12,0.00,,,0.00,,2013-03-27 23:42:00,
2013-03-27 17:52:00,72.0,15.0,29.90,NW,304,19.0,24.0,11,0.00,,,0.00,,2013-03-27 23:52:00,
2013-03-27 18:02:00,71.0,16.0,29.90,NW,325,13.0,23.0,12,0.00,,,0.00,,2013-03-28 00:02:00,
2013-03-27 18:12:00,71.0,16.0,29.90,NW,325,13.0,23.0,12,0.00,,,0.00,,2013-03-28 00:12:00,
2013-03-27 18:22:00,70.0,15.0,29.90,NW,304,12.0,23.0,12,0.00,,,0.00,,2013-03-28 00:22:00,
2013-03-27 18:32:00,69.0,16.0,29.91,NW,315,9.0,14.0,13,0.00,,,0.00,,2013-03-28 00:32:00,
2013-03-27 18:42:00,69.0,16.0,29.91,NW,315,9.0,14.0,13,0.00,,,0.00,,2013-03-28 00:42:00,
2013-03-27 18:52:00,69.0,16.0,29.90,WNW,293,7.0,10.0,13,0.00,,,0.00,,2013-03-28 00:52:00,
2013-03-27 19:02:00,70.0,17.0,29.90,WNW,300,7.0,10.0,13,0.00,,,0.00,,2013-03-28 01:02:00,
2013-03-27 19:12:00,70.0,17.0,29.90,WNW,300,7.0,10.0,13,0.00,,,0.00,,2013-03-28 01:12:00,
2013-03-27 19:22:00,69.0,16.0,29.90,NW,307,8.0,10.0,13,0.00,,,0.00,,2013-03-28 01:22:00,
2013-03-27 19:32:00,69.0,16.0,29.91,NW,323,6.0,9.0,13,0.00,,,0.00,,2013-03-28 01:32:00,
2013-03-27 19:42:00,69.0,16.0,29.91,NW,323,6.0,9.0,13,0.00,,,0.00,,2013-03-28 01:42:00,
2013-03-27 19:53:00,69.0,16.0,29.91,NW,325,5.0,8.0,13,0.00,,,0.00,,2013-03-28 01:53:00,
2013-03-27 20:02:00,69.0,16.0,29.91,NW,320,5.0,6.0,13,0.00,,,0.00,,2013-03-28 02:02:00,
2013-03-27 20:12:00,69.0,16.0,29.91,NW,320,5.0,6.0,13,0.00,,,0.00,,2013-03-28 02:12:00,
2013-03-27 20:22:00,69.0,16.0,29.91,NW,323,4.0,5.0,13,0.00,,,0.00,,2013-03-28 02:22:00,
2013-03-27 20:32:00,69.0,16.0,29.92,NW,323,2.0,5.0,13,0.00,,,0.00,,2013-03-28 02:32:00,
2013-03-27 20:42:00,69.0,16.0,29.92,NW,323,2.0,5.0,13,0.00,,,0.00,,2013-03-28 02:42:00,
2013-03-27 20:52:00,69.0,16.0,29.92,NW,323,2.0,5.0,13,0.00,,,0.00,,2013-03-28 02:52:00,
2013-03-27 21:02:00,68.0,17.0,29.92,NW,323,1.0,3.0,14,0.00,,,0.00,,2013-03-28 03:02:00,
2013-03-27 21:12:00,68.0,17.0,29.92,NW,323,1.0,3.0,14,0.00,,,0.00,,2013-03-28 03:12:00,
2013-03-27 21:22:00,68.0,17.0,29.93,NW,323,2.0,3.0,14,0.00,,,0.00,,2013-03-28 03:22:00,
2013-03-27 21:33:00,68.0,17.0,29.93,South,172,2.0,4.0,14,0.00,,,0.00,,2013-03-28 03:33:00,
2013-03-27 21:43:00,68.0,17.0,29.93,South,172,2.0,4.0,14,0.00,,,0.00,,2013-03-28 03:43:00,
2013-03-27 21:53:00,68.0,17.0,29.93,South,172,2.0,4.0,14,0.00,,,0.00,,2013-03-28 03:53:00,
2013-03-27 22:02:00,68.0,17.0,29.94,SW,222,4.0,8.0,14,0.00,,,0.00,,2013-03-28 04:02:00,
2013-03-27 22:12:00,68.0,17.0,29.94,SW,222,4.0,8.0,14,0.00,,,0.00,,2013-03-28 04:12:00,
2013-03-27 22:23:00,68.0,17.0,29.94,SW,218,1.0,4.0,14,0.00,,,0.00,,2013-03-28 04:23:00,
2013-03-27 22:32:00,67.0,16.0,29.94,SW,221,2.0,4.0,14,0.00,,,0.00,,2013-03-28 04:32:00,
2013-03-27 22:42:00,67.0,16.0,29.94,SW,221,2.0,4.0,14,0.00,,,0.00,,2013-03-28 04:42:00,
2013-03-27 22:52:00,67.0,16.0,29.95,SW,223,3.0,5.0,14,0.00,,,0.00,,2013-03-28 04:52:00,
2013-03-27 23:02:00,67.0,16.0,29.95,SW,226,5.0,7.0,14,0.00,,,0.00,,2013-03-28 05:02:00,
2013-03-27 23:12:00,67.0,16.0,29.95,SW,226,5.0,7.0,14,0.00,,,0.00,,2013-03-28 05:12:00,
2013-03-27 23:22:00,67.0,16.0,29.94,SW,226,7.0,8.0,14,0.00,,,0.00,,2013-03-28 05:22:00,
2013-03-27 23:32:00,68.0,17.0,29.94,SW,221,7.0,8.0,14,0.00,,,0.00,,2013-03-28 05:32:00,
2013-03-27 23:42:00,68.0,17.0,29.94,SW,221,7.0,8.0,14,0.00,,,0.00,,2013-03-28 05:42:00,
2013-03-27 23:52:00,66.0,17.0,29.94,SW,221,5.0,8.0,15,0.00,,,0.00,,2013-03-28 05:52:00,